Time;durP1;ratioP1;P1;durP2;ratioP2;P2;SDS_P1;SDS_P2;PMS_P1;PMS_P2;Temp;Humidity;BMP_temperature;BMP_pressure;BME280_temperature;BME280_humidity;BME280_pressure;Samples;Min_cycle;Max_cycle;Signal;HPM_P1;HPM_P2
2022/09/27 03:02:33;;;;;;;0.60;0.50;;;11.30;86.60;;;;;;5205967;23;20520;-77
2022/09/27 03:05:03;;;;;;;0.80;0.60;;;11.20;85.90;;;;;;4957540;28;20925;-77
2022/09/27 03:07:30;;;;;;;0.60;0.50;;;11.20;85.80;;;;;;4957666;28;20486;-77
2022/09/27 03:09:57;;;;;;;0.60;0.50;;;11.20;85.70;;;;;;4957569;28;20512;-76
2022/09/27 03:12:25;;;;;;;0.60;0.50;;;11.20;85.20;;;;;;4957224;28;20466;-77
2022/09/27 03:14:52;;;;;;;0.60;0.50;;;11.20;84.90;;;;;;4958831;28;20447;-77
2022/09/27 03:17:19;;;;;;;0.80;0.70;;;11.20;85.10;;;;;;4957195;28;20538;-78
2022/09/27 03:19:47;;;;;;;0.60;0.60;;;11.20;85.20;;;;;;4957512;28;20506;-78
2022/09/27 03:22:14;;;;;;;0.60;0.53;;;11.10;85.40;;;;;;4957360;28;20514;-77
2022/09/27 03:24:41;;;;;;;0.60;0.60;;;11.10;85.60;;;;;;4957392;28;20867;-77
2022/09/27 03:27:08;;;;;;;0.60;0.50;;;11.10;85.60;;;;;;4957016;28;20540;-78
2022/09/27 03:29:34;;;;;;;0.60;0.50;;;11.20;85.50;;;;;;4957332;28;20542;-77
2022/09/27 03:32:02;;;;;;;0.70;0.60;;;11.10;85.60;;;;;;4957177;28;20550;-77
2022/09/27 03:34:29;;;;;;;0.60;0.50;;;11.10;86.10;;;;;;4957190;28;20451;-77
2022/09/27 03:36:57;;;;;;;0.70;0.70;;;11.00;85.80;;;;;;4957130;28;20459;-78
2022/09/27 03:39:23;;;;;;;0.60;0.50;;;10.90;87.20;;;;;;4957093;28;20485;-77
2022/09/27 03:41:50;;;;;;;0.60;0.50;;;10.70;87.20;;;;;;4956070;28;20891;-78
2022/09/27 03:44:17;;;;;;;0.60;0.50;;;10.90;87.80;;;;;;4957060;28;20486;-77
2022/09/27 03:46:43;;;;;;;0.60;0.60;;;11.00;87.60;;;;;;4956931;28;20510;-78
2022/09/27 03:49:10;;;;;;;0.60;0.50;;;11.10;87.20;;;;;;4957115;28;20533;-78
2022/09/27 03:51:36;;;;;;;0.60;0.50;;;11.00;86.70;;;;;;4956973;28;20482;-77
2022/09/27 03:54:05;;;;;;;0.70;0.60;;;11.00;87.20;;;;;;4957085;28;20542;-77
2022/09/27 03:56:32;;;;;;;0.70;0.60;;;10.90;87.80;;;;;;4957736;28;20454;-78
2022/09/27 03:58:58;;;;;;;0.60;0.50;;;11.10;87.30;;;;;;4958106;28;20451;-77
2022/09/27 04:01:25;;;;;;;0.60;0.60;;;11.10;87.20;;;;;;4957130;28;20491;-77
2022/09/27 04:03:52;;;;;;;0.60;0.50;;;11.10;87.50;;;;;;4956997;28;20451;-77
2022/09/27 04:06:19;;;;;;;0.70;0.53;;;11.10;86.60;;;;;;4956808;28;20931;-78
2022/09/27 04:08:46;;;;;;;1.27;0.90;;;11.00;87.60;;;;;;4956969;28;20841;-77
2022/09/27 04:11:14;;;;;;;0.80;0.60;;;10.90;87.80;;;;;;4957926;28;20502;-78
2022/09/27 04:13:43;;;;;;;0.60;0.60;;;11.00;87.90;;;;;;4956438;28;20578;-78
2022/09/27 04:16:10;;;;;;;0.70;0.70;;;11.00;87.90;;;;;;4956356;28;20447;-78
2022/09/27 04:18:36;;;;;;;0.90;0.70;;;11.00;87.90;;;;;;4956371;28;20459;-77
2022/09/27 04:21:03;;;;;;;0.67;0.60;;;10.80;88.10;;;;;;4955945;28;20983;-77
2022/09/27 04:23:30;;;;;;;0.67;0.60;;;10.70;88.80;;;;;;4956244;28;20486;-77
2022/09/27 04:25:56;;;;;;;0.60;0.60;;;10.50;89.40;;;;;;4955953;28;20847;-78
2022/09/27 04:28:24;;;;;;;0.60;0.60;;;10.60;90.00;;;;;;4955946;28;20510;-78
2022/09/27 04:30:51;;;;;;;0.80;0.70;;;10.70;89.60;;;;;;4955997;28;20486;-77
2022/09/27 04:33:18;;;;;;;0.70;0.60;;;10.70;89.50;;;;;;4956080;28;20487;-78
2022/09/27 04:38:28;;;;;;;0.80;0.70;;;10.70;90.10;;;;;;4956145;29;20435;-76
2022/09/27 04:40:55;;;;;;;0.80;0.80;;;10.80;89.90;;;;;;4955881;28;20478;-77
2022/09/27 04:43:24;;;;;;;0.60;0.60;;;10.90;89.60;;;;;;4955926;28;20518;-78
2022/09/27 04:45:50;;;;;;;0.63;0.63;;;10.90;88.80;;;;;;4955915;28;20451;-77
2022/09/27 04:48:17;;;;;;;0.60;0.53;;;10.90;89.10;;;;;;4955841;28;20466;-78
2022/09/27 04:50:43;;;;;;;0.70;0.60;;;11.00;88.90;;;;;;4955678;28;20491;-77
2022/09/27 04:53:14;;;;;;;0.70;0.60;;;11.10;88.10;;;;;;4955730;28;20451;-77
2022/09/27 04:55:44;;;;;;;0.80;0.70;;;10.90;88.10;;;;;;4954887;29;20526;-78
2022/09/27 04:58:10;;;;;;;0.60;0.50;;;11.00;88.80;;;;;;4955822;28;20462;-78
2022/09/27 05:00:39;;;;;;;0.60;0.60;;;11.00;87.90;;;;;;4955535;28;20498;-77
2022/09/27 05:03:06;;;;;;;0.70;0.63;;;11.00;88.50;;;;;;4955512;28;20431;-77
2022/09/27 05:05:32;;;;;;;0.60;0.60;;;11.00;88.00;;;;;;4955675;28;20542;-77
2022/09/27 05:07:59;;;;;;;0.60;0.50;;;11.00;87.90;;;;;;4955482;28;20868;-77
2022/09/27 05:10:26;;;;;;;0.60;0.60;;;10.80;88.30;;;;;;4955096;28;20914;-77
2022/09/27 05:12:52;;;;;;;0.67;0.60;;;10.80;88.50;;;;;;4955550;28;20451;-77
2022/09/27 05:15:19;;;;;;;0.70;0.60;;;10.80;88.10;;;;;;4955481;28;20455;-78
2022/09/27 05:17:47;;;;;;;0.70;0.50;;;10.90;88.30;;;;;;4955228;28;21001;-78
2022/09/27 05:20:14;;;;;;;0.67;0.57;;;11.00;87.80;;;;;;4955483;28;20443;-78
2022/09/27 05:22:40;;;;;;;0.70;0.60;;;11.00;87.30;;;;;;4955383;28;20884;-77
2022/09/27 05:25:08;;;;;;;0.60;0.60;;;11.00;86.90;;;;;;4955151;28;21025;-78
2022/09/27 05:27:34;;;;;;;0.60;0.50;;;11.00;86.70;;;;;;4955405;28;20484;-78
2022/09/27 05:30:01;;;;;;;0.60;0.57;;;10.90;86.60;;;;;;4955253;28;20482;-77
2022/09/27 05:32:28;;;;;;;0.80;0.60;;;10.90;87.00;;;;;;4955266;28;20471;-78
2022/09/27 05:34:56;;;;;;;0.67;0.60;;;11.00;86.80;;;;;;4955021;28;20860;-78
2022/09/27 05:37:22;;;;;;;0.60;0.60;;;10.90;86.90;;;;;;4954979;28;20814;-77
2022/09/27 05:39:49;;;;;;;0.60;0.50;;;10.90;87.30;;;;;;4955251;28;20474;-77
2022/09/27 05:42:16;;;;;;;0.60;0.60;;;10.80;87.20;;;;;;4955145;28;20569;-78
2022/09/27 05:44:47;;;;;;;0.60;0.60;;;10.70;87.90;;;;;;4955214;28;20454;-77
2022/09/27 05:47:14;;;;;;;0.60;0.60;;;10.70;88.30;;;;;;4955400;28;20494;-78
2022/09/27 05:49:41;;;;;;;0.70;0.60;;;10.90;88.00;;;;;;4955095;28;20499;-77
2022/09/27 05:52:09;;;;;;;0.70;0.70;;;10.60;87.60;;;;;;4955079;28;20475;-77
2022/09/27 05:54:36;;;;;;;1.00;0.90;;;10.40;88.60;;;;;;4955119;28;20455;-78
2022/09/27 05:57:03;;;;;;;0.60;0.60;;;10.40;89.60;;;;;;4954805;28;20939;-77
2022/09/27 05:59:29;;;;;;;1.00;0.70;;;10.30;88.80;;;;;;4954762;28;20451;-78
2022/09/27 06:01:56;;;;;;;1.03;0.60;;;10.40;89.80;;;;;;4956149;28;20554;-78
2022/09/27 06:04:23;;;;;;;0.70;0.60;;;10.40;89.10;;;;;;4957925;28;20482;-78
2022/09/27 06:06:50;;;;;;;0.60;0.50;;;10.50;89.60;;;;;;4962374;28;20506;-78
2022/09/27 06:09:18;;;;;;;0.60;0.50;;;10.40;89.30;;;;;;4961957;28;20447;-77
2022/09/27 06:11:45;;;;;;;0.60;0.60;;;10.50;89.20;;;;;;4960956;28;20471;-78
2022/09/27 06:14:12;;;;;;;0.60;0.57;;;10.40;88.90;;;;;;4962011;28;20455;-78
2022/09/27 06:16:39;;;;;;;0.60;0.50;;;10.40;88.00;;;;;;4961565;28;20506;-77
2022/09/27 06:19:06;;;;;;;0.60;0.50;;;10.30;88.50;;;;;;4961913;28;20982;-78
2022/09/27 06:21:32;;;;;;;0.70;0.60;;;10.40;88.90;;;;;;4964292;28;20471;-77
2022/09/27 06:23:59;;;;;;;0.60;0.50;;;10.60;88.20;;;;;;4964909;28;20451;-77
2022/09/27 06:26:27;;;;;;;0.60;0.50;;;10.60;87.70;;;;;;4967955;28;20455;-77
2022/09/27 06:28:54;;;;;;;0.70;0.50;;;10.70;88.00;;;;;;4966977;28;20478;-77
2022/09/27 06:31:21;;;;;;;0.97;0.50;;;10.80;88.20;;;;;;4966792;28;20545;-78
2022/09/27 06:33:48;;;;;;;0.70;0.60;;;11.00;86.90;;;;;;4966714;28;20446;-78
2022/09/27 06:36:15;;;;;;;0.60;0.50;;;11.00;86.30;;;;;;4967688;28;20455;-78
2022/09/27 06:38:42;;;;;;;0.60;0.60;;;11.00;86.60;;;;;;4966111;28;20450;-77
2022/09/27 06:41:09;;;;;;;0.60;0.50;;;11.20;86.30;;;;;;4965240;28;20481;-78
2022/09/27 06:43:37;;;;;;;0.60;0.50;;;11.20;85.80;;;;;;4964801;28;20471;-78
2022/09/27 06:46:04;;;;;;;0.60;0.50;;;11.10;85.10;;;;;;4965487;28;20454;-77
2022/09/27 06:48:32;;;;;;;0.60;0.50;;;11.00;85.40;;;;;;4965977;28;20458;-78
2022/09/27 06:50:59;;;;;;;0.60;0.50;;;10.90;84.80;;;;;;4965701;28;20497;-77
2022/09/27 06:53:28;;;;;;;0.60;0.50;;;10.80;86.00;;;;;;4965673;28;20458;-77
2022/09/27 06:55:57;;;;;;;0.60;0.50;;;10.70;85.90;;;;;;4965710;28;20521;-78
2022/09/27 07:01:10;;;;;;;0.60;0.50;;;10.60;86.80;;;;;;4963118;28;20529;-77
2022/09/27 07:03:40;;;;;;;0.60;0.50;;;10.70;86.80;;;;;;4962737;28;20467;-78
2022/09/27 07:06:11;;;;;;;0.60;0.50;;;10.80;86.20;;;;;;4963760;28;20451;-79
2022/09/27 07:08:38;;;;;;;0.60;0.50;;;10.90;86.80;;;;;;4960345;28;20420;-78
2022/09/27 07:11:07;;;;;;;0.60;0.50;;;11.10;85.30;;;;;;4959577;28;20497;-77
2022/09/27 07:13:39;;;;;;;1.17;0.50;;;11.20;85.20;;;;;;4960615;28;20456;-77
2022/09/27 07:16:06;;;;;;;0.60;0.50;;;11.30;84.70;;;;;;4957054;28;20490;-77
2022/09/27 07:18:34;;;;;;;0.60;0.50;;;11.20;84.00;;;;;;4956639;28;20455;-77
2022/09/27 07:21:00;;;;;;;0.60;0.50;;;11.20;83.10;;;;;;4957451;28;20467;-77
2022/09/27 07:23:27;;;;;;;0.60;0.50;;;11.60;83.90;;;;;;4957402;28;20498;-77
2022/09/27 07:25:54;;;;;;;0.70;0.50;;;12.60;80.10;;;;;;4957318;28;20451;-77
2022/09/27 07:28:21;;;;;;;0.60;0.50;;;13.10;78.10;;;;;;4957334;28;20518;-77
2022/09/27 07:30:48;;;;;;;0.60;0.50;;;13.40;77.40;;;;;;4956859;28;20578;-77
2022/09/27 07:33:14;;;;;;;0.60;0.50;;;13.50;76.60;;;;;;4957032;28;21059;-77
2022/09/27 07:35:43;;;;;;;0.60;0.50;;;13.30;75.50;;;;;;4956893;28;21010;-77
2022/09/27 07:38:12;;;;;;;0.70;0.50;;;13.00;77.10;;;;;;4957397;28;20542;-77
2022/09/27 07:40:39;;;;;;;0.60;0.50;;;12.80;77.30;;;;;;4957178;28;20477;-77
2022/09/27 07:43:08;;;;;;;0.70;0.60;;;12.30;78.40;;;;;;4957156;28;20881;-77
2022/09/27 07:45:34;;;;;;;0.80;0.53;;;12.20;79.70;;;;;;4957110;28;20451;-77
2022/09/27 07:48:04;;;;;;;0.87;0.60;;;12.10;80.20;;;;;;4957240;28;20506;-77
2022/09/27 07:50:31;;;;;;;0.60;0.50;;;12.00;81.10;;;;;;4956820;28;20914;-77
2022/09/27 07:52:59;;;;;;;0.60;0.50;;;12.20;80.80;;;;;;4956666;28;20866;-77
2022/09/27 07:55:25;;;;;;;0.60;0.50;;;12.40;80.20;;;;;;4956608;28;20967;-77
2022/09/27 07:57:52;;;;;;;0.60;0.50;;;12.50;79.40;;;;;;4956782;28;20486;-77
2022/09/27 08:00:19;;;;;;;0.60;0.60;;;12.70;79.30;;;;;;4960015;28;20461;-77
2022/09/27 08:02:46;;;;;;;0.60;0.50;;;12.90;78.30;;;;;;4961300;28;20486;-77
2022/09/27 08:05:13;;;;;;;0.60;0.50;;;12.80;78.10;;;;;;4959403;28;20887;-77
2022/09/27 08:07:40;;;;;;;0.60;0.50;;;12.70;78.50;;;;;;4956252;28;20946;-77
2022/09/27 08:10:09;;;;;;;0.60;0.50;;;12.70;77.60;;;;;;4957561;28;20462;-77
2022/09/27 08:12:36;;;;;;;0.60;0.50;;;12.90;78.20;;;;;;4956756;28;20526;-77
2022/09/27 08:15:03;;;;;;;0.60;0.50;;;12.90;77.90;;;;;;4956656;28;20454;-77
2022/09/27 08:17:30;;;;;;;0.60;0.50;;;12.90;78.20;;;;;;4956511;28;20502;-77
2022/09/27 08:19:57;;;;;;;0.70;0.60;;;13.00;77.40;;;;;;4956129;28;20935;-77
2022/09/27 08:22:24;;;;;;;0.60;0.50;;;13.30;77.30;;;;;;4956256;28;20529;-76
2022/09/27 08:24:51;;;;;;;0.60;0.50;;;13.40;73.90;;;;;;4958370;28;20455;-77
2022/09/27 08:27:19;;;;;;;0.60;0.60;;;13.50;73.70;;;;;;4962241;28;20454;-77
2022/09/27 08:29:46;;;;;;;0.60;0.50;;;13.70;76.00;;;;;;4956702;28;20460;-77
2022/09/27 08:32:13;;;;;;;0.70;0.60;;;13.90;74.60;;;;;;4955674;28;20487;-77
2022/09/27 08:34:40;;;;;;;0.60;0.50;;;13.80;74.00;;;;;;4956085;28;20494;-77
2022/09/27 08:37:07;;;;;;;0.60;0.50;;;13.50;74.50;;;;;;4956118;28;20549;-77
2022/09/27 08:39:34;;;;;;;0.70;0.60;;;13.30;75.30;;;;;;4956111;28;20543;-77
2022/09/27 08:42:06;;;;;;;0.70;0.60;;;13.10;75.00;;;;;;4955950;28;20466;-77
2022/09/27 08:44:42;;;;;;;0.60;0.60;;;12.80;75.80;;;;;;4955999;28;20440;-76
2022/09/27 08:47:14;;;;;;;0.60;0.50;;;12.40;77.80;;;;;;4955923;28;20522;-77
2022/09/27 08:49:45;;;;;;;0.60;0.50;;;12.10;78.90;;;;;;4955946;28;20440;-77
2022/09/27 08:52:18;;;;;;;0.60;0.50;;;12.00;80.20;;;;;;4955845;28;20490;-77
2022/09/27 08:54:46;;;;;;;0.60;0.53;;;11.70;79.60;;;;;;4955887;28;20853;-77
2022/09/27 08:57:15;;;;;;;0.60;0.50;;;11.70;80.90;;;;;;4956162;28;20542;-77
2022/09/27 08:59:47;;;;;;;0.60;0.60;;;11.80;81.90;;;;;;4955682;28;20451;-77
2022/09/27 09:02:19;;;;;;;0.60;0.50;;;12.00;81.70;;;;;;4955555;28;21019;-77
2022/09/27 09:04:49;;;;;;;0.60;0.50;;;12.30;81.60;;;;;;4959114;28;20442;-77
2022/09/27 09:07:32;;;;;;;0.60;0.50;;;12.20;79.60;;;;;;4962664;28;20810;-77
2022/09/27 09:10:06;;;;;;;0.60;0.50;;;12.30;79.50;;;;;;4960203;28;20444;-77
2022/09/27 09:12:47;;;;;;;0.60;0.50;;;12.40;78.80;;;;;;4955510;28;20495;-77
2022/09/27 09:15:32;;;;;;;0.60;0.50;;;12.50;77.30;;;;;;4956891;28;20431;-77
2022/09/27 09:18:20;;;;;;;0.60;0.50;;;12.60;76.20;;;;;;4955639;28;20834;-77
2022/09/27 09:20:58;;;;;;;0.60;0.50;;;12.40;78.30;;;;;;4955430;28;20867;-77
2022/09/27 09:24:05;;;;;;;0.60;0.50;;;12.60;78.70;;;;;;4955443;28;20436;-77
2022/09/27 09:26:38;;;;;;;0.60;0.50;;;12.60;76.00;;;;;;4955459;28;20494;-77
2022/09/27 09:29:19;;;;;;;0.60;0.50;;;12.60;75.90;;;;;;4955438;28;20498;-77
2022/09/27 09:31:56;;;;;;;0.60;0.50;;;12.60;76.10;;;;;;4954983;28;20546;-77
2022/09/27 09:34:26;;;;;;;0.60;0.50;;;12.70;76.80;;;;;;4955460;28;20439;-77
2022/09/27 09:36:57;;;;;;;0.70;0.60;;;12.70;77.80;;;;;;4955417;28;20444;-77
2022/09/27 09:39:30;;;;;;;0.60;0.50;;;12.60;74.80;;;;;;4955264;28;20455;-77
2022/09/27 09:42:06;;;;;;;0.60;0.50;;;12.70;76.80;;;;;;4958849;28;20518;-77
2022/09/27 09:44:40;;;;;;;0.70;0.60;;;12.80;76.10;;;;;;4959163;29;20521;-77
2022/09/27 09:47:15;;;;;;;0.60;0.50;;;12.90;75.50;;;;;;4959136;28;20525;-77
2022/09/27 09:49:46;;;;;;;0.60;0.50;;;13.00;74.70;;;;;;4958847;28;20902;-77
2022/09/27 09:52:18;;;;;;;0.70;0.53;;;13.10;74.50;;;;;;4958964;28;20494;-77
2022/09/27 09:54:51;;;;;;;0.60;0.50;;;13.00;72.90;;;;;;4958994;28;20435;-77
2022/09/27 09:57:22;;;;;;;0.60;0.50;;;13.10;73.70;;;;;;4958660;28;20911;-77
2022/09/27 09:59:53;;;;;;;0.70;0.57;;;13.30;73.10;;;;;;4958943;28;20491;-77
2022/09/27 10:02:30;;;;;;;0.60;0.60;;;13.20;72.70;;;;;;4958544;28;20557;-76
2022/09/27 10:04:56;;;;;;;1.27;0.60;;;13.00;72.70;;;;;;4958923;28;20490;-77
2022/09/27 10:07:25;;;;;;;0.60;0.50;;;12.90;72.80;;;;;;4958886;28;20506;-77
2022/09/27 10:09:53;;;;;;;0.60;0.50;;;13.00;72.80;;;;;;4958706;28;20451;-77
2022/09/27 10:12:20;;;;;;;0.60;0.60;;;13.10;73.10;;;;;;4958628;28;20494;-77
2022/09/27 10:14:48;;;;;;;0.60;0.60;;;13.30;73.10;;;;;;4958674;28;20503;-77
2022/09/27 10:17:18;;;;;;;0.60;0.50;;;13.50;74.40;;;;;;4958617;28;20455;-76
2022/09/27 10:19:48;;;;;;;0.70;0.60;;;13.40;71.70;;;;;;4958747;28;20443;-77
2022/09/27 10:22:19;;;;;;;0.60;0.50;;;13.30;72.70;;;;;;4958569;28;20484;-77
2022/09/27 10:24:57;;;;;;;0.60;0.50;;;13.20;71.10;;;;;;4958310;28;20856;-77
2022/09/27 10:27:25;;;;;;;0.80;0.60;;;13.20;71.70;;;;;;4958538;28;20450;-77
2022/09/27 10:29:57;;;;;;;0.60;0.50;;;13.20;72.30;;;;;;4958490;28;20574;-76
2022/09/27 10:32:30;;;;;;;0.70;0.60;;;13.20;73.60;;;;;;4958477;28;20487;-77
2022/09/27 10:35:34;;;;;;;0.67;0.60;;;13.30;72.00;;;;;;4958464;28;20435;-77
2022/09/27 10:38:22;;;;;;;0.60;0.60;;;13.30;71.80;;;;;;4959071;28;20474;-77
2022/09/27 10:40:50;;;;;;;0.70;0.60;;;13.50;72.00;;;;;;4959579;28;20518;-77
2022/09/27 10:43:35;;;;;;;0.67;0.57;;;13.50;70.90;;;;;;4958247;28;20443;-77
2022/09/27 10:46:12;;;;;;;0.60;0.50;;;13.40;72.10;;;;;;4958105;28;20436;-77
2022/09/27 10:48:41;;;;;;;0.60;0.50;;;13.40;71.20;;;;;;4958293;28;20513;-77
2022/09/27 10:51:23;;;;;;;0.70;0.60;;;13.30;72.90;;;;;;4957872;28;20491;-77
2022/09/27 10:53:50;;;;;;;0.70;0.60;;;13.30;74.20;;;;;;4958810;28;20490;-78
2022/09/27 10:56:29;;;;;;;0.80;0.60;;;13.30;73.50;;;;;;4958054;28;20499;-77
2022/09/27 10:58:58;;;;;;;0.60;0.60;;;13.40;74.60;;;;;;4958058;28;20494;-77
2022/09/27 11:01:25;;;;;;;0.60;0.50;;;13.40;73.00;;;;;;4959729;28;20479;-77
2022/09/27 11:03:55;;;;;;;0.63;0.63;;;13.10;73.70;;;;;;4960231;28;20455;-78
2022/09/27 11:06:36;;;;;;;0.70;0.60;;;13.10;74.60;;;;;;4959854;28;20478;-78
2022/09/27 11:09:17;;;;;;;0.60;0.50;;;13.20;74.50;;;;;;4958831;28;20439;-77
2022/09/27 11:11:45;;;;;;;0.60;0.50;;;13.20;73.50;;;;;;4959365;28;20573;-77
2022/09/27 11:14:22;;;;;;;0.60;0.60;;;13.10;72.20;;;;;;4958472;28;20538;-78
2022/09/27 11:17:04;;;;;;;0.60;0.50;;;13.20;72.40;;;;;;4959722;28;20420;-79
2022/09/27 11:19:43;;;;;;;0.60;0.60;;;13.30;72.20;;;;;;4959954;28;20439;-78
2022/09/27 11:22:27;;;;;;;0.60;0.57;;;13.50;71.60;;;;;;4958888;28;20970;-78
2022/09/27 11:25:05;;;;;;;0.63;0.53;;;13.40;70.70;;;;;;4960059;28;20435;-78
2022/09/27 11:27:44;;;;;;;0.60;0.50;;;13.20;70.10;;;;;;4959397;28;20440;-78
2022/09/27 11:30:14;;;;;;;0.60;0.60;;;13.10;70.70;;;;;;4960416;28;20436;-78
2022/09/27 11:33:03;;;;;;;0.60;0.50;;;13.20;71.20;;;;;;4959393;28;21025;-79
2022/09/27 11:35:59;;;;;;;0.60;0.57;;;13.10;70.90;;;;;;4958927;28;20451;-78
2022/09/27 11:38:31;;;;;;;0.60;0.50;;;12.90;72.00;;;;;;4959501;28;20793;-79
2022/09/27 11:41:11;;;;;;;0.70;0.60;;;12.90;75.10;;;;;;4959696;28;20482;-79
2022/09/27 11:44:01;;;;;;;0.60;0.50;;;12.70;74.70;;;;;;4959348;28;20978;-78
2022/09/27 11:46:30;;;;;;;0.60;0.50;;;12.70;76.20;;;;;;4958728;28;20486;-78
2022/09/27 11:49:22;;;;;;;0.60;0.50;;;12.70;76.30;;;;;;4959171;28;20458;-78
2022/09/27 11:52:06;;;;;;;0.60;0.50;;;12.90;77.00;;;;;;4927025;28;20491;-78
2022/09/27 11:54:53;;;;;;;0.60;0.50;;;12.90;74.80;;;;;;4958979;28;20439;-78
2022/09/27 11:57:25;;;;;;;0.70;0.70;;;12.80;75.10;;;;;;4958668;28;20439;-78
2022/09/27 12:00:06;;;;;;;0.60;0.50;;;13.00;76.00;;;;;;4958536;28;20444;-78
2022/09/27 12:03:08;;;;;;;0.70;0.60;;;13.10;75.50;;;;;;4958461;28;20487;-78
2022/09/27 12:05:46;;;;;;;0.80;0.70;;;13.10;75.00;;;;;;4910171;28;20451;-79
2022/09/27 12:08:32;;;;;;;0.63;0.60;;;12.90;76.00;;;;;;4958530;28;20457;-78
2022/09/27 12:11:07;;;;;;;0.60;0.50;;;13.00;76.00;;;;;;4958956;28;20479;-78
2022/09/27 12:13:39;;;;;;;0.60;0.60;;;12.90;77.20;;;;;;4959768;28;20442;-78
2022/09/27 12:16:06;;;;;;;0.60;0.50;;;13.00;77.80;;;;;;4960587;28;20443;-79
2022/09/27 12:18:38;;;;;;;0.60;0.50;;;13.20;79.50;;;;;;4958517;28;20962;-78
2022/09/27 12:21:08;;;;;;;0.60;0.53;;;13.20;77.50;;;;;;4958504;28;20494;-79
2022/09/27 12:23:40;;;;;;;0.60;0.60;;;13.20;76.40;;;;;;4957801;28;20478;-78
2022/09/27 12:26:12;;;;;;;0.60;0.50;;;13.10;77.70;;;;;;4958294;28;20444;-79
2022/09/27 12:28:45;;;;;;;0.60;0.50;;;13.00;78.00;;;;;;4958331;28;20451;-79
2022/09/27 12:31:17;;;;;;;0.60;0.50;;;13.00;78.20;;;;;;4957010;28;20986;-79
2022/09/27 12:33:49;;;;;;;0.60;0.50;;;13.00;78.90;;;;;;4957644;28;20491;-78
2022/09/27 12:36:19;;;;;;;0.70;0.60;;;12.90;79.00;;;;;;4957880;28;20439;-79
2022/09/27 12:38:53;;;;;;;0.70;0.60;;;12.90;79.70;;;;;;4958238;28;21067;-79
2022/09/27 12:41:24;;;;;;;0.60;0.50;;;12.90;80.70;;;;;;4959213;28;20487;-79
2022/09/27 12:43:51;;;;;;;1.37;0.70;;;13.00;80.70;;;;;;4958328;28;20446;-78
2022/09/27 12:46:30;;;;;;;0.60;0.50;;;13.10;79.70;;;;;;4958048;28;20447;-79
2022/09/27 12:49:04;;;;;;;0.60;0.60;;;13.00;79.90;;;;;;4959040;28;20456;-79
2022/09/27 12:51:36;;;;;;;0.70;0.60;;;13.10;80.30;;;;;;4957509;28;20479;-78
2022/09/27 12:54:41;;;;;;;0.60;0.60;;;13.20;79.60;;;;;;4957871;28;20494;-79
2022/09/27 12:57:21;;;;;;;0.70;0.60;;;13.30;79.70;;;;;;4924400;28;20518;-78
2022/09/27 12:59:59;;;;;;;0.60;0.60;;;13.20;78.90;;;;;;4960474;28;20444;-78
2022/09/27 13:03:14;;;;;;;0.60;0.60;;;13.00;78.50;;;;;;4961120;28;20483;-78
2022/09/27 13:06:06;;;;;;;0.60;0.50;;;12.90;80.00;;;;;;4963131;28;20907;-78
2022/09/27 13:08:49;;;;;;;0.60;0.60;;;13.00;79.90;;;;;;4965495;28;20431;-79
2022/09/27 13:11:23;;;;;;;0.60;0.50;;;13.20;80.00;;;;;;4964310;28;20463;-78
2022/09/27 13:13:56;;;;;;;1.20;0.60;;;13.20;78.10;;;;;;4965464;28;20899;-79
2022/09/27 13:16:24;;;;;;;0.60;0.50;;;13.10;78.80;;;;;;4964241;28;20447;-78
2022/09/27 13:18:54;;;;;;;0.70;0.70;;;13.00;78.80;;;;;;4965082;28;20451;-78
2022/09/27 13:22:01;;;;;;;0.70;0.60;;;13.20;78.20;;;;;;4963928;28;20471;-78
2022/09/27 13:24:46;;;;;;;0.60;0.60;;;13.20;78.80;;;;;;4958256;28;20459;-77
2022/09/27 13:27:35;;;;;;;0.60;0.50;;;13.00;78.80;;;;;;4962499;28;20490;-78
2022/09/27 13:30:47;;;;;;;0.67;0.60;;;13.00;79.30;;;;;;4960814;28;20455;-78
2022/09/27 13:33:47;;;;;;;0.60;0.60;;;12.80;79.40;;;;;;4956787;28;20475;-79
2022/09/27 13:36:29;;;;;;;0.60;0.60;;;12.70;80.10;;;;;;4956697;28;20471;-78
2022/09/27 13:39:04;;;;;;;0.60;0.50;;;13.00;80.70;;;;;;4956578;28;20927;-78
2022/09/27 13:41:40;;;;;;;0.60;0.60;;;13.60;79.60;;;;;;4957042;28;20529;-79
2022/09/27 13:44:14;;;;;;;0.60;0.50;;;13.80;76.90;;;;;;4957032;28;20935;-79
2022/09/27 13:46:47;;;;;;;0.60;0.50;;;14.00;75.90;;;;;;4956680;28;20438;-78
2022/09/27 13:49:20;;;;;;;0.60;0.50;;;14.10;74.80;;;;;;4957604;28;20482;-78
2022/09/27 13:51:52;;;;;;;0.60;0.50;;;14.20;75.00;;;;;;4956544;28;20467;-78
2022/09/27 13:54:40;;;;;;;0.60;0.50;;;13.80;74.30;;;;;;4959700;28;20443;-77
2022/09/27 13:57:40;;;;;;;1.00;0.60;;;13.50;74.20;;;;;;4957028;28;20470;-78
2022/09/27 14:00:12;;;;;;;0.60;0.50;;;13.30;75.40;;;;;;4956133;29;21001;-79
2022/09/27 14:02:46;;;;;;;0.60;0.60;;;13.40;75.30;;;;;;4955942;28;20485;-78
2022/09/27 14:05:21;;;;;;;0.60;0.50;;;13.20;74.50;;;;;;4956053;28;20525;-77
2022/09/27 14:07:50;;;;;;;0.60;0.60;;;12.90;76.00;;;;;;4956406;28;20431;-78
2022/09/27 14:10:20;;;;;;;0.60;0.60;;;12.50;75.40;;;;;;4956292;28;20451;-78
2022/09/27 14:12:50;;;;;;;0.60;0.50;;;12.40;76.10;;;;;;4955636;28;20546;-78
2022/09/27 14:15:20;;;;;;;0.60;0.50;;;12.30;75.90;;;;;;4956852;28;20455;-79
2022/09/27 14:17:47;;;;;;;0.60;0.50;;;12.40;75.80;;;;;;4959344;28;20439;-78
2022/09/27 14:20:31;;;;;;;0.60;0.50;;;12.50;74.50;;;;;;4964046;28;20454;-78
2022/09/27 14:22:59;;;;;;;0.60;0.60;;;12.50;74.50;;;;;;4965264;28;20446;-78
2022/09/27 14:25:26;;;;;;;0.70;0.60;;;12.60;75.10;;;;;;4964965;28;20451;-79
2022/09/27 14:27:52;;;;;;;0.60;0.50;;;12.80;75.70;;;;;;4967972;28;20447;-79
2022/09/27 14:30:21;;;;;;;0.60;0.50;;;13.60;74.10;;;;;;4968744;28;20447;-79
2022/09/27 14:32:49;;;;;;;0.60;0.60;;;14.20;69.50;;;;;;4967675;28;20486;-78
2022/09/27 14:38:05;;;;;;;0.60;0.50;;;14.10;68.60;;;;;;4967483;29;20411;-78
2022/09/27 14:40:38;;;;;;;0.60;0.50;;;13.70;70.00;;;;;;4967505;28;20446;-78
2022/09/27 14:43:05;;;;;;;0.67;0.53;;;13.60;71.00;;;;;;4968061;28;20446;-79
2022/09/27 14:45:36;;;;;;;0.60;0.50;;;13.60;70.90;;;;;;4967455;28;20451;-78
2022/09/27 14:48:19;;;;;;;0.60;0.50;;;13.50;70.50;;;;;;4967654;28;20446;-78
2022/09/27 14:50:55;;;;;;;0.60;0.50;;;13.30;70.80;;;;;;4967326;28;20480;-78
2022/09/27 14:53:25;;;;;;;0.60;0.53;;;13.30;70.60;;;;;;4968100;28;20498;-79
2022/09/27 14:55:53;;;;;;;0.60;0.50;;;13.30;70.70;;;;;;4967511;28;20470;-78
2022/09/27 14:58:21;;;;;;;0.60;0.50;;;13.30;70.60;;;;;;4967601;28;20451;-78
2022/09/27 15:00:49;;;;;;;0.60;0.60;;;13.20;70.80;;;;;;4967786;28;20487;-78
2022/09/27 15:03:23;;;;;;;0.60;0.50;;;14.90;68.20;;;;;;4969145;28;20523;-79
2022/09/27 15:05:51;;;;;;;0.60;0.50;;;17.20;62.70;;;;;;4969483;28;20507;-79
2022/09/27 15:08:19;;;;;;;0.60;0.50;;;19.40;55.30;;;;;;4972259;28;20451;-78
2022/09/27 15:10:48;;;;;;;0.60;0.50;;;20.10;52.30;;;;;;4970537;28;20483;-80
2022/09/27 15:13:18;;;;;;;0.60;0.50;;;20.10;52.90;;;;;;4969642;28;20546;-79
2022/09/27 15:15:46;;;;;;;0.60;0.50;;;19.30;54.90;;;;;;4963597;28;20525;-79
2022/09/27 15:18:33;;;;;;;0.60;0.50;;;18.60;54.90;;;;;;4958329;28;20461;-79
2022/09/27 15:21:00;;;;;;;0.60;0.50;;;17.10;58.80;;;;;;4957930;28;20480;-79
2022/09/27 15:23:29;;;;;;;0.60;0.50;;;16.20;61.00;;;;;;4957716;28;20567;-79
2022/09/27 15:26:05;;;;;;;0.60;0.60;;;15.30;62.30;;;;;;4957700;28;20474;-79
2022/09/27 15:28:33;;;;;;;0.60;0.60;;;14.80;64.30;;;;;;4957679;28;20454;-79
2022/09/27 15:31:00;;;;;;;0.60;0.50;;;14.20;65.90;;;;;;4958059;28;20475;-79
2022/09/27 15:33:32;;;;;;;0.60;0.60;;;13.80;67.50;;;;;;4957707;28;20478;-79
2022/09/27 15:36:02;;;;;;;0.60;0.50;;;13.60;67.90;;;;;;4957687;28;20476;-79
2022/09/27 15:38:31;;;;;;;0.60;0.50;;;13.10;69.50;;;;;;4956522;28;20443;-79
2022/09/27 15:41:11;;;;;;;0.60;0.60;;;13.00;70.20;;;;;;4957300;28;20475;-79
2022/09/27 15:43:41;;;;;;;0.80;0.60;;;12.90;71.10;;;;;;4957481;28;20432;-79
2022/09/27 15:46:27;;;;;;;0.60;0.50;;;12.80;71.10;;;;;;4957376;28;20459;-79
2022/09/27 15:49:33;;;;;;;0.60;0.50;;;12.70;70.80;;;;;;4956425;29;20798;-79
2022/09/27 15:52:01;;;;;;;0.60;0.50;;;12.80;71.80;;;;;;4956788;28;21045;-79
2022/09/27 15:54:29;;;;;;;0.70;0.60;;;12.50;70.70;;;;;;4957177;28;20490;-79
2022/09/27 15:57:03;;;;;;;0.60;0.50;;;12.50;72.00;;;;;;4957130;28;20828;-79
2022/09/27 15:59:32;;;;;;;0.60;0.50;;;12.40;71.40;;;;;;4957018;28;20443;-79
2022/09/27 16:02:01;;;;;;;0.60;0.53;;;12.40;71.30;;;;;;4956638;28;20573;-79
2022/09/27 16:04:30;;;;;;;0.77;0.60;;;12.30;71.60;;;;;;4956805;28;20509;-79
2022/09/27 16:06:59;;;;;;;0.60;0.60;;;12.30;71.40;;;;;;4956949;28;20516;-79
2022/09/27 16:09:26;;;;;;;0.60;0.60;;;12.30;71.50;;;;;;4956863;28;20451;-79
2022/09/27 16:11:53;;;;;;;0.60;0.50;;;12.40;71.80;;;;;;4956633;28;20472;-79
2022/09/27 16:14:21;;;;;;;0.60;0.50;;;12.20;70.60;;;;;;4956922;28;20490;-79
2022/09/27 16:16:50;;;;;;;0.60;0.50;;;12.20;71.00;;;;;;4956581;28;20796;-79
2022/09/27 16:19:17;;;;;;;0.60;0.50;;;12.10;70.70;;;;;;4956657;28;20454;-79
2022/09/27 16:21:44;;;;;;;0.70;0.60;;;12.10;70.90;;;;;;4962577;28;20475;-79